createdAt,value
2023-03-29T00:03:45.813Z,-3.79
2023-03-29T00:08:54.188Z,-3.82
2023-03-29T00:13:59.830Z,-3.84
2023-03-29T00:19:05.724Z,-3.84
2023-03-29T00:24:11.629Z,-3.78
2023-03-29T00:29:17.117Z,-3.69
2023-03-29T00:34:23.716Z,-3.67
2023-03-29T00:39:30.664Z,-3.73
2023-03-29T00:45:04.496Z,-3.79
2023-03-29T00:50:16.498Z,-3.87
2023-03-29T00:55:24.605Z,-3.95
2023-03-29T01:00:35.233Z,-4.03
2023-03-29T01:05:40.555Z,-4.11
2023-03-29T01:10:52.195Z,-4.18
2023-03-29T01:15:59.068Z,-4.26
2023-03-29T01:21:19.491Z,-4.32
2023-03-29T01:26:36.957Z,-4.38
2023-03-29T01:31:48.561Z,-4.44
2023-03-29T01:37:00.809Z,-4.49
2023-03-29T01:42:15.618Z,-4.55
2023-03-29T01:47:31.221Z,-4.62
2023-03-29T01:52:42.291Z,-4.67
2023-03-29T01:57:50.412Z,-4.72
2023-03-29T02:03:01.286Z,-4.77
2023-03-29T02:08:11.077Z,-4.81
2023-03-29T02:13:18.129Z,-4.86
2023-03-29T02:18:24.806Z,-4.92
2023-03-29T02:23:36.767Z,-4.95
2023-03-29T02:28:43.358Z,-5.01
2023-03-29T02:33:53.469Z,-5.05
2023-03-29T02:39:03.947Z,-5.01
2023-03-29T02:44:14.389Z,-4.90
2023-03-29T02:49:19.935Z,-4.73
2023-03-29T02:54:29.985Z,-4.61
2023-03-29T02:59:36.497Z,-4.62
2023-03-29T03:04:41.962Z,-4.68
2023-03-29T03:09:47.933Z,-4.78
2023-03-29T03:14:53.617Z,-4.89
2023-03-29T03:19:59.867Z,-4.99
2023-03-29T03:25:10.199Z,-5.08
2023-03-29T03:30:16.764Z,-5.13
2023-03-29T03:35:35.030Z,-5.17
2023-03-29T03:40:40.682Z,-5.19
2023-03-29T03:45:46.262Z,-5.17
2023-03-29T03:50:57.214Z,-5.12
2023-03-29T03:56:08.880Z,-5.01
2023-03-29T04:01:22.697Z,-4.84
2023-03-29T04:06:35.280Z,-4.71
2023-03-29T04:12:07.328Z,-4.70
2023-03-29T04:17:12.955Z,-4.72
2023-03-29T04:22:37.262Z,-4.75
2023-03-29T04:27:43.940Z,-4.78
2023-03-29T04:33:12.535Z,-4.81
2023-03-29T04:38:23.398Z,-4.81
2023-03-29T04:43:31.164Z,-4.80
2023-03-29T04:48:50.073Z,-4.75
2023-03-29T04:53:56.471Z,-4.66
2023-03-29T04:59:02.736Z,-4.45
2023-03-29T05:04:10.763Z,-4.19
2023-03-29T05:09:22.226Z,-3.75
2023-03-29T05:14:31.594Z,-2.26
2023-03-29T05:19:38.446Z,-1.24
2023-03-29T05:24:45.753Z,-1.17
2023-03-29T05:29:56.359Z,-0.91
2023-03-29T05:35:26.207Z,-0.81
2023-03-29T05:40:33.904Z,-0.80
2023-03-29T05:45:58.711Z,-0.25
2023-03-29T05:51:05.161Z,3.82
2023-03-29T05:56:11.813Z,7.60
2023-03-29T06:01:19.010Z,8.92
2023-03-29T06:06:32.641Z,10.20
2023-03-29T06:11:39.568Z,8.19
2023-03-29T06:16:45.277Z,6.48
2023-03-29T06:21:53.763Z,7.29
2023-03-29T06:27:02.522Z,10.03
2023-03-29T06:32:08.633Z,12.97
2023-03-29T06:37:24.182Z,15.70
2023-03-29T06:42:37.411Z,17.68
2023-03-29T06:48:09.457Z,19.09
2023-03-29T06:53:15.859Z,20.02
2023-03-29T06:58:23.385Z,20.80
2023-03-29T07:03:29.365Z,21.45
2023-03-29T07:08:37.452Z,21.78
2023-03-29T07:13:49.156Z,22.32
2023-03-29T07:18:57.537Z,22.66
2023-03-29T07:24:21.412Z,22.95
2023-03-29T07:29:29.182Z,23.06
2023-03-29T07:34:35.713Z,23.27
2023-03-29T07:39:42.213Z,23.01
2023-03-29T07:45:11.367Z,23.41
2023-03-29T07:50:26.453Z,23.70
2023-03-29T07:55:33.818Z,23.45
2023-03-29T08:00:51.444Z,23.73
2023-03-29T08:06:16.004Z,24.00
2023-03-29T08:11:21.854Z,24.00
2023-03-29T08:16:38.339Z,24.33
2023-03-29T08:21:48.311Z,24.30
2023-03-29T08:26:54.613Z,24.29
2023-03-29T08:32:00.221Z,24.56
2023-03-29T08:37:05.836Z,24.68
2023-03-29T08:42:39.052Z,24.62
2023-03-29T08:47:54.378Z,24.38
2023-03-29T08:53:04.643Z,23.91
2023-03-29T08:58:34.549Z,24.24
2023-03-29T09:03:45.148Z,24.04
2023-03-29T09:08:54.864Z,23.81
2023-03-29T09:14:12.760Z,23.77
2023-03-29T09:19:28.283Z,23.74
2023-03-29T09:24:47.212Z,23.80
2023-03-29T09:30:10.194Z,23.98
2023-03-29T09:35:43.365Z,23.78
2023-03-29T09:40:53.409Z,23.52
2023-03-29T09:46:04.536Z,23.28
2023-03-29T09:51:13.131Z,23.22
2023-03-29T09:56:19.516Z,23.03
2023-03-29T10:01:38.805Z,22.75
2023-03-29T10:06:49.561Z,22.07
2023-03-29T10:12:02.254Z,21.74
2023-03-29T10:17:16.798Z,21.50
2023-03-29T10:22:24.707Z,21.50
2023-03-29T10:27:34.607Z,21.57
2023-03-29T10:32:39.794Z,20.99
2023-03-29T10:37:51.931Z,19.62
2023-03-29T10:43:00.690Z,19.28
2023-03-29T10:48:11.710Z,19.08
2023-03-29T10:53:24.859Z,19.49
2023-03-29T10:58:42.673Z,19.32
2023-03-29T11:04:05.762Z,19.23
2023-03-29T11:09:24.210Z,19.66
2023-03-29T11:14:41.185Z,19.51
2023-03-29T11:20:12.527Z,18.39
2023-03-29T11:25:38.377Z,17.03
2023-03-29T11:30:50.161Z,16.76
2023-03-29T11:36:05.356Z,16.12
2023-03-29T11:41:18.621Z,15.67
2023-03-29T11:46:28.807Z,15.46
2023-03-29T11:51:41.439Z,14.99
2023-03-29T11:56:52.663Z,14.75
2023-03-29T12:04:07.202Z,14.48
2023-03-29T12:09:23.908Z,13.73
2023-03-29T12:14:39.051Z,13.69
2023-03-29T12:19:50.347Z,13.81
2023-03-29T12:24:57.690Z,13.81
2023-03-29T12:30:23.963Z,13.72
2023-03-29T12:35:38.873Z,13.58
2023-03-29T12:41:15.280Z,13.32
2023-03-29T12:47:01.542Z,13.19
2023-03-29T12:52:17.688Z,13.04
2023-03-29T12:57:39.736Z,13.00
2023-03-29T13:02:45.910Z,13.02
2023-03-29T13:07:52.859Z,12.92
2023-03-29T13:13:08.447Z,12.83
2023-03-29T13:18:28.949Z,12.71
2023-03-29T13:23:45.905Z,12.81
2023-03-29T13:29:20.334Z,12.76
2023-03-29T13:34:37.814Z,12.47
2023-03-29T13:39:51.142Z,12.14
2023-03-29T13:45:13.370Z,11.85
2023-03-29T13:50:33.190Z,11.78
2023-03-29T13:55:47.543Z,11.73
2023-03-29T14:01:01.080Z,11.62
2023-03-29T14:06:10.722Z,11.57
2023-03-29T14:11:23.213Z,11.40
2023-03-29T14:16:31.760Z,11.35
2023-03-29T14:21:37.348Z,11.31
2023-03-29T14:26:46.992Z,11.30
2023-03-29T14:31:52.565Z,11.08
2023-03-29T14:36:58.431Z,10.69
2023-03-29T14:42:09.920Z,10.53
2023-03-29T14:47:17.811Z,10.31
2023-03-29T14:52:25.452Z,10.16
2023-03-29T14:57:36.646Z,9.99
2023-03-29T15:02:48.390Z,9.81
2023-03-29T15:07:56.356Z,9.51
2023-03-29T15:13:04.419Z,9.30
2023-03-29T15:18:14.897Z,9.11
2023-03-29T15:23:24.597Z,8.87
2023-03-29T15:28:32.721Z,8.57
2023-03-29T15:33:39.318Z,8.28
2023-03-29T15:38:49.435Z,8.16
2023-03-29T15:43:55.682Z,8.08
2023-03-29T15:49:01.598Z,8.02
2023-03-29T15:54:07.961Z,8.02
2023-03-29T15:59:14.204Z,8.01
2023-03-29T16:04:21.631Z,8.01
2023-03-29T16:09:29.469Z,7.93
2023-03-29T16:14:35.240Z,7.84
2023-03-29T16:19:41.485Z,7.71
2023-03-29T16:24:46.945Z,7.53
2023-03-29T16:29:52.420Z,7.34
2023-03-29T16:35:01.451Z,7.17
2023-03-29T16:40:21.007Z,6.98
2023-03-29T16:45:27.372Z,6.75
2023-03-29T16:50:33.165Z,6.57
2023-03-29T16:55:39.297Z,6.34
2023-03-29T17:00:48.579Z,6.09
2023-03-29T17:05:55.166Z,5.83
2023-03-29T17:11:01.616Z,5.61
2023-03-29T17:16:08.579Z,5.44
2023-03-29T17:21:14.099Z,5.29
2023-03-29T17:26:19.952Z,5.06
2023-03-29T17:31:26.018Z,4.85
2023-03-29T17:36:33.785Z,4.66
2023-03-29T17:41:39.696Z,4.49
2023-03-29T17:46:45.815Z,4.29
2023-03-29T17:51:52.406Z,4.10
2023-03-29T17:56:59.406Z,3.95
2023-03-29T18:02:06.384Z,3.81
2023-03-29T18:07:13.870Z,3.73
2023-03-29T18:12:21.088Z,3.61
2023-03-29T18:17:28.033Z,3.50
2023-03-29T18:22:34.781Z,3.44
2023-03-29T18:27:42.065Z,3.38
2023-03-29T18:32:48.363Z,3.35
2023-03-29T18:37:55.090Z,3.35
2023-03-29T18:43:10.289Z,3.38
2023-03-29T18:48:15.906Z,3.38
2023-03-29T18:53:22.008Z,3.41
2023-03-29T18:58:27.964Z,3.40
2023-03-29T19:03:35.076Z,3.44
2023-03-29T19:08:41.352Z,3.46
2023-03-29T19:13:50.641Z,3.43
2023-03-29T19:18:56.490Z,3.42
2023-03-29T19:24:05.050Z,3.38
2023-03-29T19:29:10.878Z,3.34
2023-03-29T19:34:19.809Z,3.32
2023-03-29T19:39:29.706Z,3.30
2023-03-29T19:44:39.048Z,3.28
2023-03-29T19:49:46.502Z,3.26
2023-03-29T19:54:52.351Z,3.27
2023-03-29T19:59:58.050Z,3.25
2023-03-29T20:05:04.440Z,3.27
2023-03-29T20:10:11.196Z,3.26
2023-03-29T20:15:16.919Z,3.24
2023-03-29T20:20:24.151Z,3.28
2023-03-29T20:25:29.739Z,3.29
2023-03-29T20:30:36.276Z,3.27
2023-03-29T20:35:43.948Z,3.20
2023-03-29T20:40:49.524Z,3.11
2023-03-29T20:45:55.508Z,3.05
2023-03-29T20:51:03.110Z,2.98
2023-03-29T20:56:08.962Z,2.91
2023-03-29T21:01:14.442Z,2.83
2023-03-29T21:06:20.426Z,2.70
2023-03-29T21:11:26.255Z,2.58
2023-03-29T21:16:33.007Z,2.55
2023-03-29T21:21:41.344Z,2.42
2023-03-29T21:26:46.930Z,2.27
2023-03-29T21:31:52.424Z,2.18
2023-03-29T21:36:58.188Z,2.05
2023-03-29T21:42:03.677Z,1.98
2023-03-29T21:47:09.111Z,1.83
2023-03-29T21:52:14.730Z,1.76
2023-03-29T21:57:20.500Z,1.69
2023-03-29T22:02:26.237Z,1.72
2023-03-29T22:07:35.271Z,1.81
2023-03-29T22:12:41.404Z,1.96
2023-03-29T22:17:47.012Z,2.13
2023-03-29T22:22:52.537Z,2.25
2023-03-29T22:27:58.293Z,2.31
2023-03-29T22:33:03.913Z,2.36
2023-03-29T22:38:09.627Z,2.45
2023-03-29T22:43:15.301Z,2.54
2023-03-29T22:48:21.095Z,2.63
2023-03-29T22:53:27.206Z,2.68
2023-03-29T22:58:32.640Z,2.75
2023-03-29T23:03:38.220Z,2.82
2023-03-29T23:08:43.583Z,2.87
2023-03-29T23:13:49.099Z,2.90
2023-03-29T23:18:54.568Z,2.91
2023-03-29T23:24:00.628Z,2.93
2023-03-29T23:29:06.180Z,2.94
2023-03-29T23:34:13.572Z,2.94
2023-03-29T23:39:19.248Z,2.97
2023-03-29T23:44:24.891Z,2.98
2023-03-29T23:49:31.849Z,3.03
2023-03-29T23:54:37.287Z,3.04
2023-03-29T23:59:42.684Z,3.02
